weather.gov     
National Weather Service

Terminal Aerodrome Forecast
NWS Homepage
This page is being discontinued on March 12, 2014.
The same data is available at this site. Please update your bookmarks.
Thank you, and we apologize for the inconvenience.
Please send an email to SR-SRH.Webmaster@noaa.gov with any concerns.


Current Version
Previous Version:    01  02  03  04  05  06  07  08  09  10  11  12  13  14  15  16  17  18  19  20  21  22  23  24  25  26  27  28  29  30  
   31  32  33  34  35  
[Printable]
276
FTUS41 KCAR 161400 AAA
TAFCAR
TAF AMD
KCAR 161445Z 1615/1712 18004KT P6SM -RA FEW030 OVC040
      TEMPO 1615/1617 BKN025
     FM161700 22007KT 6SM -SHRA BKN025 OVC035
     FM161900 23007KT P6SM VCSH BKN030
     FM162100 24007KT P6SM BKN040
     FM170000 24006KT P6SM SCT045 BKN200
     FM170500 VRB02KT 5SM BR BKN200
     FM171000 26005KT P6SM BKN100=


U.S. Dept. of Commerce
NOAA National Weather Service
1325 East West Highway
Silver Spring, MD 20910
E-mail: w-nws.webmaster@noaa.gov
Page last modified: May 16, 2007
NATIONAL WEATHER SERVICE: for Safety, for Work, for Fun - FOR LIFE